| time (UTC) | temp C | wind direction | speed KPH | gust KPH | rain 1hr cm | rain 24hr cm | rain mn cm | humidity % | barometer mb |
| 20260506192006 | 10 | 3 | 0.0 | 0.0 | 0.00 | 0.76 | 0.76 | 96 | 1009.9 |
| 20260506191506 | 10 | 3 | 0.0 | 0.0 | 0.00 | 0.76 | 0.76 | 95 | 1009.9 |
| 20260506190506 | 10 | 3 | 0.0 | 0.0 | 0.00 | 0.76 | 0.76 | 95 | 1009.8 |
| 20260506190006 | 10 | 3 | 0.0 | 0.0 | 0.00 | 0.76 | 0.76 | 95 | 1009.7 |
| 20260506185505 | 10 | 3 | 0.0 | 0.0 | 0.00 | 0.76 | 0.76 | 95 | 1009.7 |
| 20260506185006 | 10 | 3 | 0.0 | 0.0 | 0.00 | 0.76 | 0.76 | 95 | 1009.6 |
| 20260506184505 | 10 | 3 | 0.0 | 0.0 | 0.00 | 0.76 | 0.76 | 95 | 1009.6 |
| 20260506184005 | 11 | 3 | 0.0 | 0.0 | 0.00 | 0.76 | 0.76 | 95 | 1009.6 |
| 20260506183505 | 11 | 3 | 0.0 | 0.0 | 0.00 | 0.76 | 0.76 | 95 | 1009.5 |
| 20260506183006 | 11 | 3 | 0.0 | 0.0 | 0.00 | 0.76 | 0.76 | 95 | 1009.4 |
| 20260506182505 | 11 | 3 | 0.0 | 0.0 | 0.00 | 0.76 | 0.76 | 95 | 1009.3 |
| 20260506182005 | 11 | 3 | 0.0 | 0.0 | 0.00 | 0.76 | 0.76 | 95 | 1009.4 |
| 20260506181505 | 11 | 3 | 0.0 | 0.0 | 0.00 | 0.76 | 0.76 | 95 | 1009.3 |
| 20260506181005 | 11 | 3 | 0.0 | 0.0 | 0.00 | 0.76 | 0.76 | 95 | 1009.3 |
| 20260506180505 | 11 | 3 | 0.0 | 0.0 | 0.03 | 0.76 | 0.76 | 95 | 1009.3 |
| 20260506180006 | 11 | 3 | 0.0 | 0.0 | 0.03 | 0.76 | 0.76 | 95 | 1009.2 |
| 20260506175505 | 11 | 3 | 0.0 | 0.0 | 0.03 | 0.76 | 0.76 | 95 | 1009.2 |
| 20260506175006 | 11 | 3 | 0.0 | 0.0 | 0.03 | 0.76 | 0.76 | 95 | 1009.2 |
| 20260506174505 | 11 | 3 | 0.0 | 0.0 | 0.03 | 0.76 | 0.76 | 95 | 1009.2 |
| 20260506174005 | 11 | 3 | 0.0 | 0.0 | 0.03 | 0.76 | 0.76 | 95 | 1009.2 |
| 20260506173505 | 11 | 3 | 0.0 | 0.0 | 0.03 | 0.76 | 0.76 | 95 | 1009.1 |
| 20260506173005 | 11 | 3 | 0.0 | 0.0 | 0.03 | 0.76 | 0.76 | 95 | 1009.2 |
| 20260506172505 | 11 | 3 | 0.0 | 0.0 | 0.03 | 0.76 | 0.76 | 95 | 1009.1 |
| 20260506172005 | 11 | 1 | 0.0 | 0.0 | 0.05 | 0.76 | 0.76 | 95 | 1009.1 |
| 20260506171505 | 11 | 346 | 0.0 | 0.0 | 0.05 | 0.76 | 0.76 | 95 | 1009.0 |
| 20260506171005 | 11 | 330 | 0.0 | 3.2 | 0.05 | 0.76 | 0.76 | 95 | 1009.0 |
| 20260506170505 | 11 | 315 | 0.0 | 0.0 | 0.05 | 0.74 | 0.74 | 94 | 1009.0 |
| 20260506170006 | 11 | 315 | 0.0 | 0.0 | 0.05 | 0.74 | 0.74 | 94 | 1009.0 |
| 20260506165505 | 11 | 323 | 0.0 | 0.0 | 0.05 | 0.74 | 0.74 | 94 | 1009.0 |
| 20260506165007 | 11 | 317 | 0.0 | 0.0 | 0.08 | 0.74 | 0.74 | 94 | 1008.9 |
| 20260506164505 | 11 | 312 | 0.0 | 6.4 | 0.08 | 0.74 | 0.74 | 94 | 1009.0 |
| 20260506164005 | 11 | 299 | 0.0 | 0.0 | 0.10 | 0.74 | 0.74 | 94 | 1009.0 |
| 20260506163505 | 11 | 299 | 0.0 | 0.0 | 0.10 | 0.74 | 0.74 | 94 | 1009.0 |
| 20260506163005 | 11 | 299 | 0.0 | 0.0 | 0.10 | 0.74 | 0.74 | 94 | 1009.0 |
| 20260506162505 | 11 | 330 | 0.0 | 3.2 | 0.10 | 0.74 | 0.74 | 94 | 1009.0 |
| 20260506162005 | 11 | 354 | 0.0 | 0.0 | 0.10 | 0.71 | 0.71 | 94 | 1009.0 |
| 20260506161505 | 11 | 11 | 1.6 | 3.2 | 0.10 | 0.71 | 0.71 | 94 | 1009.0 |
| 20260506161005 | 11 | 14 | 0.0 | 0.0 | 0.13 | 0.71 | 0.71 | 94 | 1009.1 |
| 20260506160505 | 10 | 356 | 0.0 | 1.6 | 0.10 | 0.69 | 0.69 | 94 | 1009.0 |
| 20260506160006 | 10 | 1 | 1.6 | 4.8 | 0.13 | 0.69 | 0.69 | 94 | 1009.1 |
| 20260506155506 | 10 | 20 | 0.0 | 3.2 | 0.13 | 0.69 | 0.69 | 94 | 1009.1 |
| 20260506155007 | 10 | 42 | 0.0 | 1.6 | 0.10 | 0.66 | 0.66 | 93 | 1009.1 |
| 20260506154506 | 10 | 57 | 0.0 | 4.8 | 0.13 | 0.66 | 0.66 | 94 | 1009.1 |
| 20260506154006 | 10 | 26 | 0.0 | 4.8 | 0.10 | 0.64 | 0.64 | 94 | 1009.2 |
| 20260506153506 | 10 | 10 | 0.0 | 0.0 | 0.10 | 0.64 | 0.64 | 93 | 1009.1 |
| 20260506153006 | 10 | 353 | 0.0 | 6.4 | 0.10 | 0.64 | 0.64 | 93 | 1009.2 |
| 20260506152506 | 10 | 339 | 1.6 | 4.8 | 0.13 | 0.64 | 0.64 | 93 | 1009.2 |
| 20260506152006 | 10 | 351 | 0.0 | 3.2 | 0.10 | 0.61 | 0.61 | 93 | 1009.2 |
| 20260506151506 | 10 | 6 | 0.0 | 3.2 | 0.13 | 0.61 | 0.61 | 93 | 1009.2 |
| 20260506151006 | 10 | 14 | 0.0 | 6.4 | 0.10 | 0.58 | 0.58 | 93 | 1009.1 |
| 20260506150506 | 10 | 13 | 0.0 | 6.4 | 0.10 | 0.58 | 0.58 | 93 | 1009.2 |
| 20260506150006 | 10 | 1 | 0.0 | 8.0 | 0.08 | 0.56 | 0.56 | 93 | 1009.1 |
| 20260506145506 | 10 | 0 | 1.6 | 6.4 | 0.10 | 0.56 | 0.56 | 92 | 1009.1 |
| 20260506145007 | 10 | 15 | 0.0 | 4.8 | 0.10 | 0.56 | 0.56 | 93 | 1009.1 |
| 20260506144506 | 10 | 41 | 3.2 | 4.8 | 0.10 | 0.53 | 0.53 | 93 | 1009.0 |
| 20260506144006 | 10 | 47 | 0.0 | 6.4 | 0.10 | 0.53 | 0.53 | 93 | 1009.1 |
| 20260506143506 | 10 | 61 | 1.6 | 8.0 | 0.10 | 0.53 | 0.53 | 92 | 1009.0 |
| 20260506143006 | 11 | 13 | 3.2 | 6.4 | 0.13 | 0.53 | 0.53 | 93 | 1009.0 |
| 20260506142506 | 10 | 16 | 0.0 | 3.2 | 0.10 | 0.51 | 0.51 | 92 | 1008.9 |
| 20260506142006 | 10 | 19 | 0.0 | 4.8 | 0.13 | 0.51 | 0.51 | 92 | 1008.9 |
| 20260506141505 | 10 | 21 | 1.6 | 3.2 | 0.10 | 0.48 | 0.48 | 92 | 1009.0 |
| 20260506141005 | 11 | 21 | 3.2 | 8.0 | 0.10 | 0.48 | 0.48 | 92 | 1009.0 |
| 20260506140505 | 10 | 12 | 0.0 | 8.0 | 0.13 | 0.48 | 0.48 | 92 | 1009.0 |
| 20260506140005 | 11 | 23 | 3.2 | 3.2 | 0.13 | 0.48 | 0.48 | 92 | 1009.0 |
| 20260506135505 | 11 | 50 | 0.0 | 1.6 | 0.10 | 0.46 | 0.46 | 92 | 1009.0 |
| 20260506135006 | 11 | 65 | 1.6 | 3.2 | 0.13 | 0.46 | 0.46 | 92 | 1009.0 |
| 20260506134505 | 11 | 78 | 0.0 | 0.0 | 0.10 | 0.43 | 0.43 | 91 | 1008.9 |
| 20260506134005 | 11 | 32 | 0.0 | 4.8 | 0.10 | 0.43 | 0.43 | 91 | 1009.0 |
| 20260506133505 | 11 | 22 | 0.0 | 6.4 | 0.10 | 0.43 | 0.43 | 91 | 1009.0 |
| 20260506133005 | 11 | 22 | 1.6 | 4.8 | 0.10 | 0.41 | 0.41 | 91 | 1009.0 |
| 20260506132505 | 11 | 28 | 1.6 | 3.2 | 0.10 | 0.41 | 0.41 | 91 | 1009.0 |
| 20260506132005 | 11 | 37 | 0.0 | 4.8 | 0.08 | 0.38 | 0.38 | 90 | 1009.0 |
| 20260506131505 | 11 | 25 | 0.0 | 4.8 | 0.10 | 0.38 | 0.38 | 91 | 1008.9 |
| 20260506131005 | 11 | 24 | 3.2 | 6.4 | 0.10 | 0.38 | 0.38 | 91 | 1008.9 |
| 20260506130505 | 11 | 7 | 0.0 | 4.8 | 0.10 | 0.36 | 0.36 | 91 | 1008.8 |
| 20260506130005 | 11 | 352 | 0.0 | 6.4 | 0.10 | 0.36 | 0.36 | 91 | 1008.8 |
| 20260506125505 | 11 | 3 | 0.0 | 4.8 | 0.13 | 0.36 | 0.36 | 91 | 1008.8 |
| 20260506125006 | 11 | 337 | 0.0 | 6.4 | 0.10 | 0.33 | 0.33 | 91 | 1008.8 |
| 20260506124505 | 11 | 324 | 0.0 | 6.4 | 0.13 | 0.33 | 0.33 | 91 | 1008.8 |
| 20260506124005 | 11 | 322 | 3.2 | 8.0 | 0.13 | 0.33 | 0.33 | 90 | 1008.8 |
| 20260506123505 | 11 | 334 | 0.0 | 0.0 | 0.15 | 0.33 | 0.33 | 90 | 1008.8 |
| 20260506123005 | 11 | 349 | 0.0 | 3.2 | 0.13 | 0.30 | 0.30 | 90 | 1008.8 |
| 20260506122505 | 11 | 9 | 0.0 | 3.2 | 0.15 | 0.30 | 0.30 | 90 | 1008.7 |
| 20260506122006 | 11 | 2 | 3.2 | 14.5 | 0.15 | 0.30 | 0.30 | 89 | 1008.7 |
| 20260506121506 | 11 | 355 | 1.6 | 3.2 | 0.13 | 0.28 | 0.28 | 89 | 1008.7 |
| 20260506121006 | 11 | 357 | 1.6 | 6.4 | 0.13 | 0.28 | 0.28 | 89 | 1008.7 |
| 20260506120506 | 11 | 1 | 1.6 | 3.2 | 0.13 | 0.25 | 0.25 | 89 | 1008.6 |
| 20260506120005 | 11 | 13 | 3.2 | 4.8 | 0.13 | 0.25 | 0.25 | 89 | 1008.6 |
| 20260506115505 | 11 | 16 | 0.0 | 1.6 | 0.10 | 0.23 | 0.23 | 89 | 1008.6 |
| 20260506115006 | 11 | 21 | 3.2 | 6.4 | 0.10 | 0.23 | 0.23 | 88 | 1008.5 |
| 20260506114505 | 11 | 14 | 1.6 | 3.2 | 0.10 | 0.20 | 0.20 | 88 | 1008.5 |
| 20260506114005 | 11 | 13 | 1.6 | 6.4 | 0.10 | 0.20 | 0.20 | 88 | 1008.5 |
| 20260506113505 | 11 | 21 | 3.2 | 8.0 | 0.08 | 0.18 | 0.18 | 88 | 1008.5 |
| 20260506113005 | 11 | 13 | 3.2 | 4.8 | 0.08 | 0.18 | 0.18 | 88 | 1008.5 |
| 20260506112505 | 11 | 28 | 3.2 | 8.0 | 0.08 | 0.15 | 0.15 | 88 | 1008.5 |
| 20260506112005 | 11 | 36 | 1.6 | 8.0 | 0.08 | 0.15 | 0.15 | 88 | 1008.5 |
| 20260506111505 | 11 | 357 | 1.6 | 4.8 | 0.08 | 0.15 | 0.15 | 87 | 1008.5 |
| 20260506111005 | 11 | 333 | 0.0 | 8.0 | 0.08 | 0.15 | 0.15 | 87 | 1008.4 |
| 20260506110505 | 11 | 331 | 0.0 | 3.2 | 0.05 | 0.13 | 0.13 | 87 | 1008.5 |
| 20260506110005 | 11 | 330 | 0.0 | 0.0 | 0.08 | 0.13 | 0.13 | 87 | 1008.5 |
| 20260506105505 | 11 | 343 | 0.0 | 3.2 | 0.08 | 0.13 | 0.13 | 86 | 1008.5 |
| 20260506105006 | 11 | 346 | 1.6 | 3.2 | 0.08 | 0.13 | 0.13 | 86 | 1008.4 |
| 20260506104505 | 11 | 342 | 0.0 | 3.2 | 0.05 | 0.10 | 0.10 | 86 | 1008.5 |
| 20260506104005 | 11 | 349 | 0.0 | 3.2 | 0.05 | 0.10 | 0.10 | 85 | 1008.5 |
| 20260506103505 | 11 | 353 | 0.0 | 6.4 | 0.08 | 0.10 | 0.10 | 85 | 1008.4 |
| 20260506103005 | 11 | 357 | 0.0 | 6.4 | 0.08 | 0.10 | 0.10 | 85 | 1008.4 |
| 20260506102505 | 11 | 0 | 3.2 | 6.4 | 0.05 | 0.08 | 0.08 | 85 | 1008.4 |
| 20260506102005 | 11 | 17 | 0.0 | 4.8 | 0.05 | 0.08 | 0.08 | 85 | 1008.4 |
| 20260506101505 | 10 | 19 | 3.2 | 8.0 | 0.08 | 0.08 | 0.08 | 84 | 1008.4 |
| 20260506101005 | 10 | 29 | 4.8 | 9.7 | 0.08 | 0.08 | 0.08 | 83 | 1008.4 |
| 20260506100505 | 11 | 31 | 1.6 | 8.0 | 0.08 | 0.08 | 0.08 | 84 | 1008.3 |
| 20260506100005 | 11 | 27 | 1.6 | 8.0 | 0.05 | 0.05 | 0.05 | 83 | 1008.4 |
| 20260506095505 | 11 | 31 | 4.8 | 14.5 | 0.05 | 0.05 | 0.05 | 83 | 1008.4 |
| 20260506095006 | 11 | 36 | 0.0 | 4.8 | 0.05 | 0.05 | 0.05 | 83 | 1008.3 |
| 20260506094505 | 11 | 34 | 3.2 | 12.9 | 0.05 | 0.05 | 0.05 | 82 | 1008.3 |
| 20260506094005 | 11 | 31 | 4.8 | 12.9 | 0.05 | 0.05 | 0.05 | 81 | 1008.3 |
| 20260506093505 | 11 | 24 | 3.2 | 11.3 | 0.03 | 0.03 | 0.03 | 81 | 1008.3 |
| 20260506093005 | 11 | 22 | 4.8 | 9.7 | 0.03 | 0.03 | 0.03 | 80 | 1008.2 |
| 20260506092505 | 11 | 20 | 6.4 | 11.3 | 0.03 | 0.03 | 0.03 | 79 | 1008.2 |
| 20260506092005 | 11 | 30 | 4.8 | 12.9 | 0.03 | 0.03 | 0.03 | 76 | 1008.1 |
| 20260506091505 | 12 | 354 | 0.0 | 4.8 | 0.00 | 0.00 | 0.00 | 78 | 1008.1 |
| 20260506090505 | 12 | 24 | 4.8 | 14.5 | 0.00 | 0.00 | 0.00 | 73 | 1008.1 |
| 20260506090005 | 12 | 29 | 1.6 | 4.8 | 0.00 | 0.00 | 0.00 | 74 | 1008.1 |
| 20260506085505 | 12 | 27 | 6.4 | 14.5 | 0.00 | 0.00 | 0.00 | 73 | 1008.1 |
| 20260506085006 | 12 | 32 | 6.4 | 12.9 | 0.00 | 0.00 | 0.00 | 70 | 1008.0 |
| 20260506084505 | 12 | 53 | 3.2 | 12.9 | 0.00 | 0.00 | 0.00 | 72 | 1008.0 |
| 20260506084005 | 11 | 27 | 4.8 | 12.9 | 0.00 | 0.00 | 0.00 | 71 | 1007.9 |
| 20260506083505 | 11 | 33 | 3.2 | 11.3 | 0.00 | 0.00 | 0.00 | 71 | 1007.9 |
| 20260506083005 | 11 | 18 | 1.6 | 16.1 | 0.00 | 0.00 | 0.00 | 72 | 1007.8 |
| 20260506082505 | 11 | 17 | 1.6 | 11.3 | 0.00 | 0.00 | 0.00 | 73 | 1007.8 |
| 20260506082005 | 11 | 22 | 4.8 | 12.9 | 0.00 | 0.00 | 0.00 | 71 | 1007.7 |
| 20260506081505 | 11 | 23 | 4.8 | 9.7 | 0.00 | 0.00 | 0.00 | 71 | 1007.6 |
| 20260506081006 | 11 | 29 | 1.6 | 12.9 | 0.00 | 0.00 | 0.00 | 73 | 1007.5 |
| 20260506080505 | 11 | 23 | 1.6 | 11.3 | 0.00 | 0.00 | 0.00 | 73 | 1007.6 |
| 20260506073506 | 11 | 19 | 3.2 | 11.3 | 0.00 | 0.00 | 0.00 | 76 | 1007.5 |
| 20260506073006 | 11 | 359 | 4.8 | 16.1 | 0.00 | 0.00 | 0.00 | 76 | 1007.4 |
| 20260506072506 | 10 | 19 | 1.6 | 4.8 | 0.00 | 0.00 | 0.00 | 77 | 1007.4 |
| 20260506072006 | 10 | 23 | 4.8 | 12.9 | 0.00 | 0.00 | 0.00 | 76 | 1007.5 |
| 20260506071506 | 10 | 21 | 6.4 | 14.5 | 0.00 | 0.00 | 0.00 | 76 | 1007.5 |
| 20260506071005 | 10 | 104 | 9.7 | 17.7 | 0.00 | 0.00 | 0.00 | 75 | 1007.5 |
| 20260506070505 | 10 | 15 | 6.4 | 12.9 | 0.00 | 0.00 | 0.00 | 76 | 1007.5 |
| 20260506062505 | 10 | 11 | 3.2 | 11.3 | 0.00 | 0.00 | 0.00 | 79 | 1007.4 |
| 20260506062005 | 10 | 12 | 1.6 | 9.7 | 0.00 | 0.00 | 0.00 | 80 | 1007.4 |
| 20260506061505 | 10 | 354 | 3.2 | 12.9 | 0.00 | 0.00 | 0.00 | 80 | 1007.4 |
| 20260506061005 | 10 | 302 | 0.0 | 11.3 | 0.00 | 0.00 | 0.00 | 80 | 1007.4 |
| 20260506060505 | 10 | 14 | 1.6 | 8.0 | 0.00 | 0.00 | 0.00 | 81 | 1007.4 |
| 20260506051006 | 10 | 17 | 1.6 | 3.2 | 0.00 | 0.00 | 0.00 | 83 | 1007.4 |
| 20260506050506 | 10 | 11 | 1.6 | 6.4 | 0.00 | 0.00 | 0.00 | 83 | 1007.4 |
| 20260506045007 | 10 | 4 | 6.4 | 9.7 | 0.00 | 0.00 | 0.00 | 82 | 1007.5 |
| 20260506044505 | 10 | 6 | 3.2 | 9.7 | 0.00 | 0.00 | 0.00 | 82 | 1007.5 |
| 20260506044005 | 10 | 9 | 1.6 | 8.0 | 0.00 | 0.00 | 0.00 | 82 | 1007.5 |
| 20260506043505 | 10 | 12 | 3.2 | 8.0 | 0.00 | 0.00 | 0.00 | 82 | 1007.5 |
| 20260506043005 | 10 | 9 | 1.6 | 8.0 | 0.00 | 0.00 | 0.00 | 81 | 1007.5 |
| 20260506042505 | 10 | 7 | 3.2 | 8.0 | 0.00 | 0.00 | 0.00 | 81 | 1007.6 |
| 20260506042005 | 10 | 6 | 3.2 | 6.4 | 0.00 | 0.00 | 0.00 | 80 | 1007.5 |
| 20260506041505 | 10 | 1 | 4.8 | 9.7 | 0.00 | 0.00 | 0.00 | 80 | 1007.5 |
| 20260506041005 | 10 | 357 | 1.6 | 8.0 | 0.00 | 0.00 | 0.00 | 79 | 1007.5 |
| 20260506040505 | 10 | 3 | 0.0 | 6.4 | 0.00 | 0.00 | 0.00 | 79 | 1007.5 |
| 20260506040005 | 10 | 13 | 1.6 | 8.0 | 0.00 | 0.00 | 0.00 | 78 | 1007.5 |
| 20260506035505 | 10 | 14 | 3.2 | 9.7 | 0.00 | 0.00 | 0.00 | 78 | 1007.5 |
| 20260506035006 | 10 | 6 | 1.6 | 9.7 | 0.00 | 0.00 | 0.00 | 78 | 1007.4 |
| 20260506034505 | 10 | 18 | 1.6 | 6.4 | 0.00 | 0.00 | 0.00 | 78 | 1007.5 |
| 20260506034005 | 10 | 22 | 0.0 | 9.7 | 0.00 | 0.00 | 0.00 | 78 | 1007.5 |
| 20260506033506 | 10 | 30 | 3.2 | 8.0 | 0.00 | 0.00 | 0.00 | 78 | 1007.5 |
| 20260506033005 | 10 | 27 | 3.2 | 9.7 | 0.00 | 0.00 | 0.00 | 78 | 1007.5 |
| 20260506032505 | 10 | 17 | 4.8 | 9.7 | 0.00 | 0.00 | 0.00 | 78 | 1007.5 |
| 20260506032005 | 10 | 12 | 3.2 | 9.7 | 0.00 | 0.00 | 0.00 | 79 | 1007.6 |
| 20260506031505 | 10 | 354 | 3.2 | 6.4 | 0.00 | 0.00 | 0.00 | 79 | 1007.6 |
| 20260506031005 | 11 | 336 | 1.6 | 6.4 | 0.00 | 0.00 | 0.00 | 80 | 1007.6 |
| 20260506030505 | 11 | 318 | 0.0 | 4.8 | 0.00 | 0.00 | 0.00 | 80 | 1007.7 |
| 20260506030005 | 11 | 1 | 1.6 | 6.4 | 0.00 | 0.03 | 0.00 | 80 | 1007.7 |
| 20260506025505 | 11 | 14 | 3.2 | 8.0 | 0.00 | 0.05 | 0.00 | 80 | 1007.8 |
| 20260506025006 | 11 | 7 | 1.6 | 9.7 | 0.00 | 0.05 | 0.00 | 80 | 1007.8 |
| 20260506024505 | 11 | 0 | 3.2 | 8.0 | 0.00 | 0.05 | 0.00 | 80 | 1007.9 |
| 20260506024005 | 11 | 12 | 3.2 | 9.7 | 0.00 | 0.05 | 0.00 | 80 | 1007.9 |
| 20260506023505 | 11 | 16 | 0.0 | 9.7 | 0.00 | 0.05 | 0.00 | 80 | 1007.9 |
| 20260506023006 | 11 | 41 | 0.0 | 4.8 | 0.00 | 0.05 | 0.00 | 80 | 1007.9 |
| 20260506022506 | 11 | 43 | 3.2 | 9.7 | 0.00 | 0.08 | 0.00 | 79 | 1007.9 |
| 20260506022006 | 11 | 59 | 3.2 | 8.0 | 0.00 | 0.08 | 0.00 | 80 | 1007.9 |
| 20260506021506 | 11 | 18 | 0.0 | 3.2 | 0.00 | 0.10 | 0.00 | 81 | 1008.0 |
| 20260506021005 | 11 | 15 | 1.6 | 6.4 | 0.00 | 0.15 | 0.00 | 81 | 1008.1 |
| 20260506020506 | 11 | 23 | 1.6 | 9.7 | 0.00 | 0.20 | 0.00 | 81 | 1008.0 |
| 20260506020005 | 11 | 35 | 1.6 | 9.7 | 0.00 | 0.25 | 0.00 | 81 | 1008.0 |
| 20260506015505 | 11 | 43 | 3.2 | 4.8 | 0.00 | 0.25 | 0.00 | 82 | 1008.1 |
| 20260506015006 | 11 | 40 | 0.0 | 6.4 | 0.00 | 0.28 | 0.00 | 82 | 1008.1 |
| 20260506014505 | 11 | 30 | 1.6 | 8.0 | 0.00 | 0.30 | 0.00 | 82 | 1008.1 |
| 20260506014005 | 11 | 29 | 4.8 | 9.7 | 0.00 | 0.30 | 0.00 | 82 | 1008.1 |
| 20260506013505 | 11 | 29 | 1.6 | 11.3 | 0.00 | 0.30 | 0.00 | 82 | 1008.2 |
| 20260506013006 | 11 | 26 | 3.2 | 6.4 | 0.00 | 0.30 | 0.00 | 83 | 1008.2 |
| 20260506012506 | 11 | 18 | 3.2 | 6.4 | 0.00 | 0.33 | 0.00 | 82 | 1008.1 |
| 20260506012005 | 11 | 10 | 1.6 | 6.4 | 0.00 | 0.33 | 0.00 | 82 | 1008.2 |
| 20260506011505 | 11 | 7 | 3.2 | 9.7 | 0.00 | 0.33 | 0.00 | 83 | 1008.1 |
| 20260506011005 | 11 | 10 | 3.2 | 8.0 | 0.00 | 0.33 | 0.00 | 83 | 1008.1 |
| 20260506010505 | 11 | 13 | 3.2 | 9.7 | 0.00 | 0.33 | 0.00 | 83 | 1008.2 |
| 20260506010005 | 11 | 14 | 1.6 | 9.7 | 0.00 | 0.33 | 0.00 | 83 | 1008.2 |
| 20260506005505 | 11 | 23 | 1.6 | 6.4 | 0.00 | 0.33 | 0.00 | 84 | 1008.3 |
| 20260506005006 | 11 | 28 | 3.2 | 9.7 | 0.00 | 0.36 | 0.00 | 83 | 1008.3 |
| 20260506004505 | 11 | 26 | 3.2 | 8.0 | 0.00 | 0.36 | 0.00 | 84 | 1008.3 |
| 20260506004005 | 11 | 17 | 3.2 | 9.7 | 0.00 | 0.38 | 0.00 | 84 | 1008.4 |
| 20260506003505 | 11 | 8 | 3.2 | 9.7 | 0.00 | 0.41 | 0.00 | 83 | 1008.4 |
| 20260506003005 | 11 | 14 | 1.6 | 9.7 | 0.00 | 0.43 | 0.00 | 83 | 1008.4 |
| 20260506002505 | 11 | 15 | 3.2 | 6.4 | 0.00 | 0.46 | 0.00 | 84 | 1008.4 |
| 20260506002005 | 11 | 9 | 1.6 | 8.0 | 0.00 | 0.46 | 0.00 | 83 | 1008.5 |
| 20260506001505 | 11 | 16 | 4.8 | 9.7 | 0.00 | 0.48 | 0.00 | 84 | 1008.5 |
| 20260506001005 | 11 | 23 | 4.8 | 9.7 | 0.00 | 0.48 | 0.00 | 84 | 1008.5 |
| 20260506000505 | 11 | 23 | 1.6 | 4.8 | 0.00 | 0.48 | 0.00 | 84 | 1008.5 |
| 20260506000005 | 11 | 10 | 1.6 | 9.7 | 0.00 | 0.51 | 0.00 | 83 | 1008.6 |
| 20260505235505 | 11 | 32 | 3.2 | 8.0 | 0.00 | 0.51 | 0.00 | 83 | 1008.5 |
| 20260505235006 | 11 | 41 | 6.4 | 12.9 | 0.00 | 0.51 | 0.00 | 83 | 1008.6 |
| 20260505234505 | 11 | 46 | 3.2 | 6.4 | 0.00 | 0.53 | 0.00 | 84 | 1008.6 |
| 20260505234005 | 11 | 341 | 0.0 | 3.2 | 0.00 | 0.56 | 0.00 | 84 | 1008.7 |
| 20260505233505 | 11 | 0 | 3.2 | 4.8 | 0.00 | 0.64 | 0.00 | 84 | 1008.7 |
| 20260505233005 | 11 | 2 | 1.6 | 4.8 | 0.00 | 0.66 | 0.00 | 84 | 1008.7 |
| 20260505232505 | 11 | 23 | 4.8 | 11.3 | 0.00 | 0.66 | 0.00 | 84 | 1008.7 |
| 20260505232005 | 11 | 17 | 3.2 | 6.4 | 0.00 | 0.66 | 0.00 | 84 | 1008.7 |
| 20260505231505 | 11 | 13 | 1.6 | 8.0 | 0.00 | 0.66 | 0.00 | 84 | 1008.7 |
| 20260505231005 | 12 | 21 | 1.6 | 4.8 | 0.00 | 0.66 | 0.00 | 84 | 1008.7 |
| 20260505230505 | 12 | 27 | 1.6 | 4.8 | 0.00 | 0.66 | 0.00 | 84 | 1008.7 |
| 20260505230005 | 12 | 30 | 1.6 | 8.0 | 0.00 | 0.66 | 0.00 | 84 | 1008.8 |
| 20260505225505 | 12 | 37 | 3.2 | 11.3 | 0.00 | 0.66 | 0.00 | 84 | 1008.7 |
| 20260505225006 | 12 | 25 | 3.2 | 4.8 | 0.00 | 0.66 | 0.00 | 83 | 1008.8 |
| 20260505224505 | 12 | 23 | 1.6 | 6.4 | 0.00 | 0.66 | 0.00 | 83 | 1008.8 |
| 20260505224005 | 12 | 33 | 0.0 | 11.3 | 0.00 | 0.66 | 0.00 | 83 | 1008.9 |
| 20260505223505 | 12 | 38 | 4.8 | 9.7 | 0.00 | 0.66 | 0.00 | 83 | 1008.9 |
| 20260505223006 | 12 | 34 | 0.0 | 6.4 | 0.00 | 0.66 | 0.00 | 83 | 1008.8 |
| 20260505222506 | 12 | 18 | 4.8 | 9.7 | 0.00 | 0.66 | 0.00 | 83 | 1008.8 |
| 20260505222005 | 12 | 28 | 3.2 | 8.0 | 0.00 | 0.66 | 0.00 | 83 | 1008.9 |
| 20260505221506 | 12 | 27 | 3.2 | 8.0 | 0.00 | 0.66 | 0.00 | 84 | 1008.9 |
| 20260505221007 | 12 | 26 | 0.0 | 1.6 | 0.00 | 0.66 | 0.00 | 84 | 1008.9 |
| 20260505220506 | 12 | 6 | 4.8 | 12.9 | 0.00 | 0.66 | 0.00 | 84 | 1009.0 |
| 20260505220006 | 12 | 12 | 3.2 | 8.0 | 0.00 | 0.66 | 0.00 | 85 | 1009.0 |
| 20260505215505 | 12 | 27 | 4.8 | 8.0 | 0.00 | 0.66 | 0.66 | 86 | 1009.0 |
| 20260505215007 | 12 | 23 | 6.4 | 9.7 | 0.00 | 0.66 | 0.66 | 87 | 1009.0 |
| 20260505214506 | 12 | 14 | 3.2 | 8.0 | 0.00 | 0.66 | 0.66 | 88 | 1009.1 |
| 20260505214005 | 12 | 7 | 4.8 | 9.7 | 0.00 | 0.66 | 0.66 | 89 | 1009.1 |
| 20260505213506 | 12 | 11 | 0.0 | 4.8 | 0.00 | 0.66 | 0.66 | 89 | 1009.1 |
| 20260505213005 | 12 | 16 | 1.6 | 3.2 | 0.00 | 0.66 | 0.66 | 89 | 1009.2 |
| 20260505212506 | 12 | 10 | 1.6 | 4.8 | 0.00 | 0.66 | 0.66 | 89 | 1009.2 |
| 20260505212005 | 12 | 3 | 0.0 | 3.2 | 0.00 | 0.66 | 0.66 | 90 | 1009.2 |
| 20260505211506 | 12 | 7 | 3.2 | 4.8 | 0.00 | 0.66 | 0.66 | 89 | 1009.2 |
| 20260505211006 | 12 | 355 | 0.0 | 3.2 | 0.00 | 0.66 | 0.66 | 89 | 1009.2 |
| 20260505210506 | 12 | 7 | 1.6 | 4.8 | 0.00 | 0.66 | 0.66 | 89 | 1009.2 |
| 20260505210006 | 12 | 12 | 0.0 | 3.2 | 0.00 | 0.66 | 0.66 | 89 | 1009.3 |
| 20260505205506 | 12 | 23 | 0.0 | 3.2 | 0.00 | 0.66 | 0.66 | 89 | 1009.3 |
| 20260505205007 | 12 | 36 | 0.0 | 0.0 | 0.00 | 0.66 | 0.66 | 89 | 1009.3 |
| 20260505204506 | 12 | 345 | 0.0 | 0.0 | 0.00 | 0.66 | 0.66 | 89 | 1009.3 |
| 20260505204005 | 12 | 348 | 0.0 | 1.6 | 0.00 | 0.66 | 0.66 | 89 | 1009.4 |
| 20260505203505 | 12 | 2 | 1.6 | 4.8 | 0.00 | 0.66 | 0.66 | 89 | 1009.5 |
| 20260505203005 | 12 | 3 | 0.0 | 0.0 | 0.00 | 0.66 | 0.66 | 89 | 1009.4 |
| 20260505202505 | 12 | 3 | 0.0 | 0.0 | 0.00 | 0.66 | 0.66 | 89 | 1009.5 |
| 20260505202005 | 13 | 16 | 0.0 | 1.6 | 0.00 | 0.66 | 0.66 | 89 | 1009.4 |
| 20260505201505 | 13 | 25 | 0.0 | 4.8 | 0.00 | 0.66 | 0.66 | 89 | 1009.3 |
| 20260505201005 | 13 | 31 | 0.0 | 3.2 | 0.00 | 0.66 | 0.66 | 89 | 1009.3 |
| 20260505200505 | 13 | 48 | 0.0 | 0.0 | 0.00 | 0.66 | 0.66 | 89 | 1009.3 |
| 20260505200005 | 13 | 26 | 0.0 | 1.6 | 0.00 | 0.66 | 0.66 | 88 | 1009.3 |
| 20260505195505 | 13 | 10 | 1.6 | 4.8 | 0.00 | 0.66 | 0.66 | 88 | 1009.2 |
| 20260505195006 | 13 | 9 | 0.0 | 3.2 | 0.00 | 0.66 | 0.66 | 88 | 1009.2 |
| 20260505194505 | 13 | 13 | 0.0 | 1.6 | 0.00 | 0.66 | 0.66 | 88 | 1009.2 |
| 20260505194005 | 13 | 14 | 0.0 | 3.2 | 0.00 | 0.66 | 0.66 | 88 | 1009.2 |
| 20260505193505 | 13 | 6 | 0.0 | 3.2 | 0.00 | 0.66 | 0.66 | 88 | 1009.1 |
| 20260505193005 | 13 | 2 | 1.6 | 4.8 | 0.00 | 0.66 | 0.66 | 88 | 1009.0 |
| 20260505192505 | 13 | 12 | 0.0 | 4.8 | 0.00 | 0.66 | 0.66 | 88 | 1009.0 |